sensor_id;sensor_type;location;lat;lon;timestamp;temperature;humidity
16402;DHT22;8310;44.626;11.176;2023-02-15T00:01:16;7.60;49.30
16402;DHT22;8310;44.626;11.176;2023-02-15T00:03:47;7.60;49.30
16402;DHT22;8310;44.626;11.176;2023-02-15T00:06:16;7.60;49.30
16402;DHT22;8310;44.626;11.176;2023-02-15T00:08:44;7.60;49.40
16402;DHT22;8310;44.626;11.176;2023-02-15T00:11:15;7.60;49.30
16402;DHT22;8310;44.626;11.176;2023-02-15T00:14:03;7.50;49.30
16402;DHT22;8310;44.626;11.176;2023-02-15T00:16:31;7.50;49.40
16402;DHT22;8310;44.626;11.176;2023-02-15T00:19:00;7.60;49.40
16402;DHT22;8310;44.626;11.176;2023-02-15T00:21:28;7.50;49.50
16402;DHT22;8310;44.626;11.176;2023-02-15T00:23:57;7.50;49.60
16402;DHT22;8310;44.626;11.176;2023-02-15T00:26:25;7.40;49.60
16402;DHT22;8310;44.626;11.176;2023-02-15T00:28:53;7.40;49.50
16402;DHT22;8310;44.626;11.176;2023-02-15T00:31:21;7.50;49.50
16402;DHT22;8310;44.626;11.176;2023-02-15T00:33:49;7.50;49.40
16402;DHT22;8310;44.626;11.176;2023-02-15T00:36:19;7.50;49.30
16402;DHT22;8310;44.626;11.176;2023-02-15T00:38:47;7.50;49.30
16402;DHT22;8310;44.626;11.176;2023-02-15T00:41:14;7.50;49.30
16402;DHT22;8310;44.626;11.176;2023-02-15T00:43:42;7.50;49.30
16402;DHT22;8310;44.626;11.176;2023-02-15T00:46:10;7.50;49.30
16402;DHT22;8310;44.626;11.176;2023-02-15T00:48:38;7.40;50.40
16402;DHT22;8310;44.626;11.176;2023-02-15T00:51:06;7.30;49.70
16402;DHT22;8310;44.626;11.176;2023-02-15T00:53:35;7.20;50.10
16402;DHT22;8310;44.626;11.176;2023-02-15T00:56:03;7.10;49.60
16402;DHT22;8310;44.626;11.176;2023-02-15T00:58:31;7.10;49.50
16402;DHT22;8310;44.626;11.176;2023-02-15T01:01:03;7.10;49.60
16402;DHT22;8310;44.626;11.176;2023-02-15T01:03:31;7.10;49.60
16402;DHT22;8310;44.626;11.176;2023-02-15T01:05:59;7.00;49.50
16402;DHT22;8310;44.626;11.176;2023-02-15T01:08:27;7.10;49.60
16402;DHT22;8310;44.626;11.176;2023-02-15T01:10:56;7.00;49.50
16402;DHT22;8310;44.626;11.176;2023-02-15T01:13:24;7.00;49.50
16402;DHT22;8310;44.626;11.176;2023-02-15T01:15:55;7.00;49.50
16402;DHT22;8310;44.626;11.176;2023-02-15T01:18:23;7.00;49.50
16402;DHT22;8310;44.626;11.176;2023-02-15T01:20:50;7.00;49.40
16402;DHT22;8310;44.626;11.176;2023-02-15T01:23:18;7.00;49.40
16402;DHT22;8310;44.626;11.176;2023-02-15T01:25:45;7.00;49.40
16402;DHT22;8310;44.626;11.176;2023-02-15T01:28:15;7.00;49.40
16402;DHT22;8310;44.626;11.176;2023-02-15T01:30:42;7.00;49.40
16402;DHT22;8310;44.626;11.176;2023-02-15T01:33:10;6.90;49.40
16402;DHT22;8310;44.626;11.176;2023-02-15T01:35:43;6.90;49.40
16402;DHT22;8310;44.626;11.176;2023-02-15T01:38:12;6.80;49.40
16402;DHT22;8310;44.626;11.176;2023-02-15T01:40:41;6.90;49.40
16402;DHT22;8310;44.626;11.176;2023-02-15T01:43:09;6.80;49.40
16402;DHT22;8310;44.626;11.176;2023-02-15T01:45:39;6.80;49.40
16402;DHT22;8310;44.626;11.176;2023-02-15T01:48:18;6.80;49.50
16402;DHT22;8310;44.626;11.176;2023-02-15T01:50:50;6.80;49.50
16402;DHT22;8310;44.626;11.176;2023-02-15T01:53:22;6.80;49.40
16402;DHT22;8310;44.626;11.176;2023-02-15T01:55:54;6.70;49.40
16402;DHT22;8310;44.626;11.176;2023-02-15T01:58:26;6.70;49.40
16402;DHT22;8310;44.626;11.176;2023-02-15T02:00:58;6.70;49.40
16402;DHT22;8310;44.626;11.176;2023-02-15T02:03:32;6.60;49.30
16402;DHT22;8310;44.626;11.176;2023-02-15T02:06:05;6.60;49.40
16402;DHT22;8310;44.626;11.176;2023-02-15T02:08:33;6.60;49.40
16402;DHT22;8310;44.626;11.176;2023-02-15T02:11:02;6.60;49.40
16402;DHT22;8310;44.626;11.176;2023-02-15T02:13:29;6.60;49.30
16402;DHT22;8310;44.626;11.176;2023-02-15T02:16:04;6.50;49.20
16402;DHT22;8310;44.626;11.176;2023-02-15T02:18:43;6.50;49.20
16402;DHT22;8310;44.626;11.176;2023-02-15T02:21:45;6.40;49.20
16402;DHT22;8310;44.626;11.176;2023-02-15T02:24:32;6.30;49.10
16402;DHT22;8310;44.626;11.176;2023-02-15T02:27:23;6.30;49.10
16402;DHT22;8310;44.626;11.176;2023-02-15T02:30:20;6.20;49.10
16402;DHT22;8310;44.626;11.176;2023-02-15T02:33:14;6.10;49.10
16402;DHT22;8310;44.626;11.176;2023-02-15T02:35:51;6.10;49.20
16402;DHT22;8310;44.626;11.176;2023-02-15T02:38:25;6.10;49.80
16402;DHT22;8310;44.626;11.176;2023-02-15T02:41:02;6.00;49.20
16402;DHT22;8310;44.626;11.176;2023-02-15T02:43:37;6.00;49.30
16402;DHT22;8310;44.626;11.176;2023-02-15T02:46:08;6.00;49.30
16402;DHT22;8310;44.626;11.176;2023-02-15T02:48:41;6.00;49.30
16402;DHT22;8310;44.626;11.176;2023-02-15T02:51:08;6.00;49.30
16402;DHT22;8310;44.626;11.176;2023-02-15T02:53:36;6.00;49.30
16402;DHT22;8310;44.626;11.176;2023-02-15T02:56:09;6.00;49.30
16402;DHT22;8310;44.626;11.176;2023-02-15T02:58:41;6.00;49.30
16402;DHT22;8310;44.626;11.176;2023-02-15T03:01:13;6.00;49.40
16402;DHT22;8310;44.626;11.176;2023-02-15T03:03:47;6.00;49.40
16402;DHT22;8310;44.626;11.176;2023-02-15T03:06:18;6.00;49.30
16402;DHT22;8310;44.626;11.176;2023-02-15T03:08:50;6.00;49.40
16402;DHT22;8310;44.626;11.176;2023-02-15T03:11:18;6.00;49.40
16402;DHT22;8310;44.626;11.176;2023-02-15T03:13:48;6.00;49.40
16402;DHT22;8310;44.626;11.176;2023-02-15T03:16:18;6.00;49.40
16402;DHT22;8310;44.626;11.176;2023-02-15T03:18:56;6.00;49.40
16402;DHT22;8310;44.626;11.176;2023-02-15T03:21:32;5.90;49.50
16402;DHT22;8310;44.626;11.176;2023-02-15T03:24:04;5.90;49.50
16402;DHT22;8310;44.626;11.176;2023-02-15T03:26:34;5.90;49.50
16402;DHT22;8310;44.626;11.176;2023-02-15T03:29:04;5.90;49.50
16402;DHT22;8310;44.626;11.176;2023-02-15T03:31:37;5.90;49.50
16402;DHT22;8310;44.626;11.176;2023-02-15T03:34:11;6.00;49.60
16402;DHT22;8310;44.626;11.176;2023-02-15T03:36:44;6.00;49.60
16402;DHT22;8310;44.626;11.176;2023-02-15T03:39:18;6.00;49.50
16402;DHT22;8310;44.626;11.176;2023-02-15T03:41:54;5.90;49.40
16402;DHT22;8310;44.626;11.176;2023-02-15T03:44:28;5.90;49.40
16402;DHT22;8310;44.626;11.176;2023-02-15T03:47:00;5.90;49.40
16402;DHT22;8310;44.626;11.176;2023-02-15T03:49:36;5.90;49.40
16402;DHT22;8310;44.626;11.176;2023-02-15T03:52:07;5.80;49.40
16402;DHT22;8310;44.626;11.176;2023-02-15T03:54:36;5.80;49.30
16402;DHT22;8310;44.626;11.176;2023-02-15T03:57:17;5.80;49.40
16402;DHT22;8310;44.626;11.176;2023-02-15T04:00:05;5.70;49.90
16402;DHT22;8310;44.626;11.176;2023-02-15T04:03:10;5.60;49.20
16402;DHT22;8310;44.626;11.176;2023-02-15T04:05:41;5.50;49.20
16402;DHT22;8310;44.626;11.176;2023-02-15T04:08:13;5.50;49.10
16402;DHT22;8310;44.626;11.176;2023-02-15T04:10:42;5.40;49.10
16402;DHT22;8310;44.626;11.176;2023-02-15T04:13:21;5.30;49.90
16402;DHT22;8310;44.626;11.176;2023-02-15T04:15:49;5.30;50.70
16402;DHT22;8310;44.626;11.176;2023-02-15T04:18:31;5.20;49.50
16402;DHT22;8310;44.626;11.176;2023-02-15T04:21:17;5.10;49.20
16402;DHT22;8310;44.626;11.176;2023-02-15T04:24:02;5.10;49.40
16402;DHT22;8310;44.626;11.176;2023-02-15T04:26:47;5.10;49.40
16402;DHT22;8310;44.626;11.176;2023-02-15T04:29:14;5.20;49.30
16402;DHT22;8310;44.626;11.176;2023-02-15T04:31:42;5.20;49.30
16402;DHT22;8310;44.626;11.176;2023-02-15T04:34:10;5.20;49.40
16402;DHT22;8310;44.626;11.176;2023-02-15T04:36:39;5.20;49.40
16402;DHT22;8310;44.626;11.176;2023-02-15T04:39:07;5.20;49.40
16402;DHT22;8310;44.626;11.176;2023-02-15T04:41:35;5.20;49.40
16402;DHT22;8310;44.626;11.176;2023-02-15T04:44:02;5.20;49.40
16402;DHT22;8310;44.626;11.176;2023-02-15T04:46:30;5.20;49.40
16402;DHT22;8310;44.626;11.176;2023-02-15T04:48:59;5.20;49.40
16402;DHT22;8310;44.626;11.176;2023-02-15T04:51:26;5.20;49.30
16402;DHT22;8310;44.626;11.176;2023-02-15T04:53:56;5.10;49.30
16402;DHT22;8310;44.626;11.176;2023-02-15T04:56:23;5.10;49.30
16402;DHT22;8310;44.626;11.176;2023-02-15T04:58:51;5.10;49.30
16402;DHT22;8310;44.626;11.176;2023-02-15T05:01:20;5.10;49.40
16402;DHT22;8310;44.626;11.176;2023-02-15T05:03:47;5.10;49.40
16402;DHT22;8310;44.626;11.176;2023-02-15T05:06:15;5.10;49.30
16402;DHT22;8310;44.626;11.176;2023-02-15T05:08:43;5.00;49.30
16402;DHT22;8310;44.626;11.176;2023-02-15T05:11:12;5.00;49.30
16402;DHT22;8310;44.626;11.176;2023-02-15T05:13:40;4.90;49.10
16402;DHT22;8310;44.626;11.176;2023-02-15T05:16:07;4.80;49.10
16402;DHT22;8310;44.626;11.176;2023-02-15T05:18:35;4.70;49.00
16402;DHT22;8310;44.626;11.176;2023-02-15T05:21:03;4.60;49.00
16402;DHT22;8310;44.626;11.176;2023-02-15T05:23:31;4.60;49.10
16402;DHT22;8310;44.626;11.176;2023-02-15T05:25:58;4.50;49.10
16402;DHT22;8310;44.626;11.176;2023-02-15T05:28:44;4.50;49.20
16402;DHT22;8310;44.626;11.176;2023-02-15T05:31:14;4.50;49.20
16402;DHT22;8310;44.626;11.176;2023-02-15T05:33:42;4.50;49.30
16402;DHT22;8310;44.626;11.176;2023-02-15T05:36:10;4.60;49.40
16402;DHT22;8310;44.626;11.176;2023-02-15T05:38:38;4.60;49.40
16402;DHT22;8310;44.626;11.176;2023-02-15T05:41:07;4.60;49.30
16402;DHT22;8310;44.626;11.176;2023-02-15T05:43:36;4.60;49.30
16402;DHT22;8310;44.626;11.176;2023-02-15T05:46:05;4.60;49.30
16402;DHT22;8310;44.626;11.176;2023-02-15T05:48:34;4.60;49.30
16402;DHT22;8310;44.626;11.176;2023-02-15T05:51:04;4.60;49.30
16402;DHT22;8310;44.626;11.176;2023-02-15T05:53:33;4.60;49.40
16402;DHT22;8310;44.626;11.176;2023-02-15T05:56:01;4.60;49.40
16402;DHT22;8310;44.626;11.176;2023-02-15T05:58:32;4.70;49.50
16402;DHT22;8310;44.626;11.176;2023-02-15T06:01:06;4.70;49.50
16402;DHT22;8310;44.626;11.176;2023-02-15T06:03:35;4.70;49.50
16402;DHT22;8310;44.626;11.176;2023-02-15T06:06:03;4.70;49.40
16402;DHT22;8310;44.626;11.176;2023-02-15T06:08:32;4.70;49.40
16402;DHT22;8310;44.626;11.176;2023-02-15T06:11:00;4.70;49.40
16402;DHT22;8310;44.626;11.176;2023-02-15T06:13:28;4.70;49.50
16402;DHT22;8310;44.626;11.176;2023-02-15T06:15:55;4.70;49.50
16402;DHT22;8310;44.626;11.176;2023-02-15T06:18:23;4.70;49.50
16402;DHT22;8310;44.626;11.176;2023-02-15T06:20:53;4.70;49.50
16402;DHT22;8310;44.626;11.176;2023-02-15T06:23:20;4.70;49.50
16402;DHT22;8310;44.626;11.176;2023-02-15T06:25:48;4.70;49.60
16402;DHT22;8310;44.626;11.176;2023-02-15T06:28:15;4.70;49.60
16402;DHT22;8310;44.626;11.176;2023-02-15T06:30:43;4.70;49.60
16402;DHT22;8310;44.626;11.176;2023-02-15T06:33:11;4.80;49.80
16402;DHT22;8310;44.626;11.176;2023-02-15T06:35:38;4.80;50.30
16402;DHT22;8310;44.626;11.176;2023-02-15T06:38:08;5.00;51.00
16402;DHT22;8310;44.626;11.176;2023-02-15T06:40:36;5.30;51.80
16402;DHT22;8310;44.626;11.176;2023-02-15T06:43:03;5.50;52.30
16402;DHT22;8310;44.626;11.176;2023-02-15T06:45:31;5.90;53.00
16402;DHT22;8310;44.626;11.176;2023-02-15T06:47:59;6.20;53.60
16402;DHT22;8310;44.626;11.176;2023-02-15T06:50:27;6.60;54.20
16402;DHT22;8310;44.626;11.176;2023-02-15T06:52:56;7.00;54.70
16402;DHT22;8310;44.626;11.176;2023-02-15T06:55:26;7.30;55.40
16402;DHT22;8310;44.626;11.176;2023-02-15T06:57:53;7.70;55.90
16402;DHT22;8310;44.626;11.176;2023-02-15T07:00:21;8.10;56.30
16402;DHT22;8310;44.626;11.176;2023-02-15T07:02:59;8.50;56.50
16402;DHT22;8310;44.626;11.176;2023-02-15T07:05:27;8.90;57.00
16402;DHT22;8310;44.626;11.176;2023-02-15T07:07:56;9.20;57.40
16402;DHT22;8310;44.626;11.176;2023-02-15T07:10:26;9.50;57.70
16402;DHT22;8310;44.626;11.176;2023-02-15T07:12:54;9.90;58.30
16402;DHT22;8310;44.626;11.176;2023-02-15T07:15:21;10.20;58.80
16402;DHT22;8310;44.626;11.176;2023-02-15T07:17:49;10.60;59.30
16402;DHT22;8310;44.626;11.176;2023-02-15T07:20:19;11.00;60.00
16402;DHT22;8310;44.626;11.176;2023-02-15T07:22:47;11.40;60.40
16402;DHT22;8310;44.626;11.176;2023-02-15T07:25:15;11.80;61.10
16402;DHT22;8310;44.626;11.176;2023-02-15T07:27:44;12.20;61.90
16402;DHT22;8310;44.626;11.176;2023-02-15T07:30:14;12.60;62.30
16402;DHT22;8310;44.626;11.176;2023-02-15T07:32:42;13.00;62.90
16402;DHT22;8310;44.626;11.176;2023-02-15T07:35:23;13.40;63.40
16402;DHT22;8310;44.626;11.176;2023-02-15T07:37:51;13.80;63.70
16402;DHT22;8310;44.626;11.176;2023-02-15T07:40:19;14.20;64.40
16402;DHT22;8310;44.626;11.176;2023-02-15T07:42:51;14.50;64.40
16402;DHT22;8310;44.626;11.176;2023-02-15T07:45:20;14.70;62.90
16402;DHT22;8310;44.626;11.176;2023-02-15T07:47:48;15.00;63.50
16402;DHT22;8310;44.626;11.176;2023-02-15T07:50:16;15.30;64.30
16402;DHT22;8310;44.626;11.176;2023-02-15T07:52:44;15.60;64.80
16402;DHT22;8310;44.626;11.176;2023-02-15T07:55:11;15.90;65.30
16402;DHT22;8310;44.626;11.176;2023-02-15T07:57:42;16.20;65.60
16402;DHT22;8310;44.626;11.176;2023-02-15T08:00:16;16.60;66.00
16402;DHT22;8310;44.626;11.176;2023-02-15T08:02:47;16.90;66.40
16402;DHT22;8310;44.626;11.176;2023-02-15T08:05:35;17.10;65.90
16402;DHT22;8310;44.626;11.176;2023-02-15T08:08:02;17.40;66.30
16402;DHT22;8310;44.626;11.176;2023-02-15T08:10:30;17.60;66.40
16402;DHT22;8310;44.626;11.176;2023-02-15T08:13:11;17.80;65.30
16402;DHT22;8310;44.626;11.176;2023-02-15T08:15:40;17.90;62.20
16402;DHT22;8310;44.626;11.176;2023-02-15T08:18:14;17.80;60.60
16402;DHT22;8310;44.626;11.176;2023-02-15T08:20:42;17.50;58.80
16402;DHT22;8310;44.626;11.176;2023-02-15T08:23:10;17.20;56.90
16402;DHT22;8310;44.626;11.176;2023-02-15T08:25:42;16.80;54.90
16402;DHT22;8310;44.626;11.176;2023-02-15T08:28:10;16.20;54.30
16402;DHT22;8310;44.626;11.176;2023-02-15T08:30:39;15.60;53.70
16402;DHT22;8310;44.626;11.176;2023-02-15T08:33:07;15.10;53.40
16402;DHT22;8310;44.626;11.176;2023-02-15T08:35:35;14.60;53.20
16402;DHT22;8310;44.626;11.176;2023-02-15T08:38:02;14.30;53.10
16402;DHT22;8310;44.626;11.176;2023-02-15T08:40:30;14.10;53.10
16402;DHT22;8310;44.626;11.176;2023-02-15T08:42:59;13.90;53.10
16402;DHT22;8310;44.626;11.176;2023-02-15T08:45:26;13.80;53.10
16402;DHT22;8310;44.626;11.176;2023-02-15T08:47:55;13.70;53.10
16402;DHT22;8310;44.626;11.176;2023-02-15T08:50:23;13.70;53.20
16402;DHT22;8310;44.626;11.176;2023-02-15T08:52:50;13.70;53.20
16402;DHT22;8310;44.626;11.176;2023-02-15T08:55:18;13.70;53.30
16402;DHT22;8310;44.626;11.176;2023-02-15T08:57:49;13.80;53.40
16402;DHT22;8310;44.626;11.176;2023-02-15T09:00:18;13.80;53.40
16402;DHT22;8310;44.626;11.176;2023-02-15T09:02:47;13.90;53.40
16402;DHT22;8310;44.626;11.176;2023-02-15T09:05:17;13.90;53.40
16402;DHT22;8310;44.626;11.176;2023-02-15T09:07:45;14.10;53.50
16402;DHT22;8310;44.626;11.176;2023-02-15T09:10:12;14.20;53.60
16402;DHT22;8310;44.626;11.176;2023-02-15T09:12:39;14.20;53.60
16402;DHT22;8310;44.626;11.176;2023-02-15T09:15:08;14.40;53.60
16402;DHT22;8310;44.626;11.176;2023-02-15T09:17:36;14.40;53.70
16402;DHT22;8310;44.626;11.176;2023-02-15T09:20:05;14.60;53.60
16402;DHT22;8310;44.626;11.176;2023-02-15T09:22:34;14.60;53.30
16402;DHT22;8310;44.626;11.176;2023-02-15T09:25:02;14.60;53.10
16402;DHT22;8310;44.626;11.176;2023-02-15T09:27:29;14.70;53.20
16402;DHT22;8310;44.626;11.176;2023-02-15T09:29:59;14.70;53.10
16402;DHT22;8310;44.626;11.176;2023-02-15T09:32:27;14.70;53.10
16402;DHT22;8310;44.626;11.176;2023-02-15T09:34:54;14.80;53.10
16402;DHT22;8310;44.626;11.176;2023-02-15T09:37:22;14.90;53.00
16402;DHT22;8310;44.626;11.176;2023-02-15T09:39:51;15.00;52.90
16402;DHT22;8310;44.626;11.176;2023-02-15T09:42:48;15.10;53.50
16402;DHT22;8310;44.626;11.176;2023-02-15T09:45:29;15.20;53.80
16402;DHT22;8310;44.626;11.176;2023-02-15T09:51:16;15.40;53.70
16402;DHT22;8310;44.626;11.176;2023-02-15T09:54:03;15.60;53.80
16402;DHT22;8310;44.626;11.176;2023-02-15T09:56:39;15.70;53.70
16402;DHT22;8310;44.626;11.176;2023-02-15T09:59:15;15.80;53.40
16402;DHT22;8310;44.626;11.176;2023-02-15T10:01:54;15.90;53.60
16402;DHT22;8310;44.626;11.176;2023-02-15T10:04:40;15.90;53.40
16402;DHT22;8310;44.626;11.176;2023-02-15T10:07:20;16.00;53.40
16402;DHT22;8310;44.626;11.176;2023-02-15T10:09:57;16.10;53.50
16402;DHT22;8310;44.626;11.176;2023-02-15T10:12:42;16.10;53.30
16402;DHT22;8310;44.626;11.176;2023-02-15T10:15:24;16.20;53.50
16402;DHT22;8310;44.626;11.176;2023-02-15T10:20:56;16.30;53.00
16402;DHT22;8310;44.626;11.176;2023-02-15T10:23:38;16.40;52.20
16402;DHT22;8310;44.626;11.176;2023-02-15T10:26:13;16.40;52.80
16402;DHT22;8310;44.626;11.176;2023-02-15T10:28:48;16.50;52.90
16402;DHT22;8310;44.626;11.176;2023-02-15T10:31:23;16.60;52.80
16402;DHT22;8310;44.626;11.176;2023-02-15T10:34:12;16.70;53.60
16402;DHT22;8310;44.626;11.176;2023-02-15T10:36:58;16.70;53.40
16402;DHT22;8310;44.626;11.176;2023-02-15T10:39:37;16.80;53.40
16402;DHT22;8310;44.626;11.176;2023-02-15T10:42:11;16.80;53.40
16402;DHT22;8310;44.626;11.176;2023-02-15T10:44:57;16.90;53.40
16402;DHT22;8310;44.626;11.176;2023-02-15T10:47:43;17.00;53.40
16402;DHT22;8310;44.626;11.176;2023-02-15T10:50:36;17.10;53.60
16402;DHT22;8310;44.626;11.176;2023-02-15T10:53:26;17.30;52.20
16402;DHT22;8310;44.626;11.176;2023-02-15T10:56:03;17.40;53.30
16402;DHT22;8310;44.626;11.176;2023-02-15T10:59:02;17.40;53.10
16402;DHT22;8310;44.626;11.176;2023-02-15T11:01:40;17.50;53.30
16402;DHT22;8310;44.626;11.176;2023-02-15T11:04:33;17.50;53.60
16402;DHT22;8310;44.626;11.176;2023-02-15T11:07:06;17.60;53.60
16402;DHT22;8310;44.626;11.176;2023-02-15T11:09:40;17.70;53.70
16402;DHT22;8310;44.626;11.176;2023-02-15T11:12:12;17.90;53.50
16402;DHT22;8310;44.626;11.176;2023-02-15T11:14:43;18.00;53.40
16402;DHT22;8310;44.626;11.176;2023-02-15T11:17:17;18.10;52.60
16402;DHT22;8310;44.626;11.176;2023-02-15T11:19:54;18.20;51.70
16402;DHT22;8310;44.626;11.176;2023-02-15T11:22:22;18.20;53.20
16402;DHT22;8310;44.626;11.176;2023-02-15T11:24:51;18.30;53.20
16402;DHT22;8310;44.626;11.176;2023-02-15T11:27:22;18.30;53.50
16402;DHT22;8310;44.626;11.176;2023-02-15T11:29:57;18.40;53.60
16402;DHT22;8310;44.626;11.176;2023-02-15T11:32:30;18.40;52.60
16402;DHT22;8310;44.626;11.176;2023-02-15T11:35:01;18.50;53.30
16402;DHT22;8310;44.626;11.176;2023-02-15T11:37:35;18.60;53.30
16402;DHT22;8310;44.626;11.176;2023-02-15T11:40:15;18.70;53.10
16402;DHT22;8310;44.626;11.176;2023-02-15T11:42:45;18.80;53.20
16402;DHT22;8310;44.626;11.176;2023-02-15T11:45:22;18.80;53.10
16402;DHT22;8310;44.626;11.176;2023-02-15T11:47:52;18.90;53.20
16402;DHT22;8310;44.626;11.176;2023-02-15T11:50:22;19.00;53.60
16402;DHT22;8310;44.626;11.176;2023-02-15T11:52:52;19.10;53.40
16402;DHT22;8310;44.626;11.176;2023-02-15T11:55:22;19.20;53.20
16402;DHT22;8310;44.626;11.176;2023-02-15T11:57:53;19.10;51.40
16402;DHT22;8310;44.626;11.176;2023-02-15T12:00:30;19.20;50.10
16402;DHT22;8310;44.626;11.176;2023-02-15T12:03:07;19.20;52.20
16402;DHT22;8310;44.626;11.176;2023-02-15T12:05:40;19.30;53.10
16402;DHT22;8310;44.626;11.176;2023-02-15T12:08:15;19.40;53.30
16402;DHT22;8310;44.626;11.176;2023-02-15T12:10:53;19.50;53.20
16402;DHT22;8310;44.626;11.176;2023-02-15T12:13:23;19.60;53.10
16402;DHT22;8310;44.626;11.176;2023-02-15T12:15:53;19.70;52.90
16402;DHT22;8310;44.626;11.176;2023-02-15T12:18:34;19.80;53.20
16402;DHT22;8310;44.626;11.176;2023-02-15T12:21:06;19.90;52.70
16402;DHT22;8310;44.626;11.176;2023-02-15T12:23:39;19.90;53.50
16402;DHT22;8310;44.626;11.176;2023-02-15T12:26:09;20.10;53.50
16402;DHT22;8310;44.626;11.176;2023-02-15T12:28:39;20.20;53.50
16402;DHT22;8310;44.626;11.176;2023-02-15T12:31:17;20.20;53.50
16402;DHT22;8310;44.626;11.176;2023-02-15T12:33:50;20.30;53.70
16402;DHT22;8310;44.626;11.176;2023-02-15T12:36:20;20.40;53.60
16402;DHT22;8310;44.626;11.176;2023-02-15T12:39:03;20.60;53.60
16402;DHT22;8310;44.626;11.176;2023-02-15T12:41:31;20.60;53.60
16402;DHT22;8310;44.626;11.176;2023-02-15T12:44:07;20.70;53.60
16402;DHT22;8310;44.626;11.176;2023-02-15T12:46:34;20.80;52.30
16402;DHT22;8310;44.626;11.176;2023-02-15T12:49:16;20.80;52.40
16402;DHT22;8310;44.626;11.176;2023-02-15T12:51:47;20.90;53.30
16402;DHT22;8310;44.626;11.176;2023-02-15T12:54:36;20.90;53.30
16402;DHT22;8310;44.626;11.176;2023-02-15T12:57:17;21.00;53.50
16402;DHT22;8310;44.626;11.176;2023-02-15T12:59:52;21.10;53.80
16402;DHT22;8310;44.626;11.176;2023-02-15T13:02:23;21.30;54.00
16402;DHT22;8310;44.626;11.176;2023-02-15T13:04:54;21.40;53.90
16402;DHT22;8310;44.626;11.176;2023-02-15T13:07:24;21.60;53.90
16402;DHT22;8310;44.626;11.176;2023-02-15T13:09:52;21.70;53.80
16402;DHT22;8310;44.626;11.176;2023-02-15T13:12:22;21.70;53.60
16402;DHT22;8310;44.626;11.176;2023-02-15T13:14:53;21.80;53.60
16402;DHT22;8310;44.626;11.176;2023-02-15T13:17:25;21.80;51.00
16402;DHT22;8310;44.626;11.176;2023-02-15T13:19:59;21.80;53.00
16402;DHT22;8310;44.626;11.176;2023-02-15T13:22:36;21.80;53.20
16402;DHT22;8310;44.626;11.176;2023-02-15T13:25:13;21.80;53.30
16402;DHT22;8310;44.626;11.176;2023-02-15T13:27:42;21.80;53.20
16402;DHT22;8310;44.626;11.176;2023-02-15T13:30:19;21.80;53.40
16402;DHT22;8310;44.626;11.176;2023-02-15T13:32:51;21.90;53.50
16402;DHT22;8310;44.626;11.176;2023-02-15T13:35:22;21.90;53.40
16402;DHT22;8310;44.626;11.176;2023-02-15T13:38:06;22.00;54.00
16402;DHT22;8310;44.626;11.176;2023-02-15T13:40:39;22.00;53.40
16402;DHT22;8310;44.626;11.176;2023-02-15T13:43:21;22.10;53.40
16402;DHT22;8310;44.626;11.176;2023-02-15T13:46:01;22.20;53.60
16402;DHT22;8310;44.626;11.176;2023-02-15T13:48:41;22.30;53.60
16402;DHT22;8310;44.626;11.176;2023-02-15T13:51:20;22.30;53.30
16402;DHT22;8310;44.626;11.176;2023-02-15T13:54:14;22.30;53.20
16402;DHT22;8310;44.626;11.176;2023-02-15T13:56:53;22.30;53.20
16402;DHT22;8310;44.626;11.176;2023-02-15T13:59:46;22.30;53.30
16402;DHT22;8310;44.626;11.176;2023-02-15T14:02:42;22.40;51.50
16402;DHT22;8310;44.626;11.176;2023-02-15T14:05:28;22.40;51.70
16402;DHT22;8310;44.626;11.176;2023-02-15T14:08:24;22.30;52.70
16402;DHT22;8310;44.626;11.176;2023-02-15T14:11:01;22.30;53.00
16402;DHT22;8310;44.626;11.176;2023-02-15T14:13:55;22.40;53.20
16402;DHT22;8310;44.626;11.176;2023-02-15T14:16:32;22.50;53.40
16402;DHT22;8310;44.626;11.176;2023-02-15T14:19:16;22.60;53.30
16402;DHT22;8310;44.626;11.176;2023-02-15T14:21:49;22.70;53.30
16402;DHT22;8310;44.626;11.176;2023-02-15T14:24:32;22.80;53.10
16402;DHT22;8310;44.626;11.176;2023-02-15T14:27:10;22.80;53.10
16402;DHT22;8310;44.626;11.176;2023-02-15T14:29:48;22.90;53.30
16402;DHT22;8310;44.626;11.176;2023-02-15T14:32:20;23.00;53.40
16402;DHT22;8310;44.626;11.176;2023-02-15T14:34:50;23.10;53.40
16402;DHT22;8310;44.626;11.176;2023-02-15T14:37:23;23.20;53.40
16402;DHT22;8310;44.626;11.176;2023-02-15T14:40:00;23.30;53.30
16402;DHT22;8310;44.626;11.176;2023-02-15T14:42:50;23.30;53.10
16402;DHT22;8310;44.626;11.176;2023-02-15T14:45:24;23.40;53.10
16402;DHT22;8310;44.626;11.176;2023-02-15T14:48:04;23.40;53.00
16402;DHT22;8310;44.626;11.176;2023-02-15T14:50:41;23.50;53.10
16402;DHT22;8310;44.626;11.176;2023-02-15T14:56:24;23.60;53.10
16402;DHT22;8310;44.626;11.176;2023-02-15T14:59:13;23.70;53.00
16402;DHT22;8310;44.626;11.176;2023-02-15T15:01:50;23.80;53.00
16402;DHT22;8310;44.626;11.176;2023-02-15T15:04:27;23.90;53.00
16402;DHT22;8310;44.626;11.176;2023-02-15T15:07:08;24.00;53.00
16402;DHT22;8310;44.626;11.176;2023-02-15T15:09:38;24.10;52.90
16402;DHT22;8310;44.626;11.176;2023-02-15T15:12:38;24.20;52.70
16402;DHT22;8310;44.626;11.176;2023-02-15T15:15:09;24.30;52.70
16402;DHT22;8310;44.626;11.176;2023-02-15T15:17:58;24.40;52.80
16402;DHT22;8310;44.626;11.176;2023-02-15T15:20:42;24.50;52.70
16402;DHT22;8310;44.626;11.176;2023-02-15T15:23:38;24.60;52.70
16402;DHT22;8310;44.626;11.176;2023-02-15T15:26:30;24.70;52.70
16402;DHT22;8310;44.626;11.176;2023-02-15T15:29:05;24.90;52.80
16402;DHT22;8310;44.626;11.176;2023-02-15T15:31:45;25.00;52.80
16402;DHT22;8310;44.626;11.176;2023-02-15T15:34:45;25.10;52.70
16402;DHT22;8310;44.626;11.176;2023-02-15T15:37:51;25.30;52.80
16402;DHT22;8310;44.626;11.176;2023-02-15T15:40:48;25.40;52.70
16402;DHT22;8310;44.626;11.176;2023-02-15T15:46:47;25.50;52.50
16402;DHT22;8310;44.626;11.176;2023-02-15T15:49:20;25.50;52.50
16402;DHT22;8310;44.626;11.176;2023-02-15T15:51:49;25.50;52.50
16402;DHT22;8310;44.626;11.176;2023-02-15T15:54:18;25.50;52.40
16402;DHT22;8310;44.626;11.176;2023-02-15T15:56:49;25.40;52.30
16402;DHT22;8310;44.626;11.176;2023-02-15T15:59:21;25.40;52.10
16402;DHT22;8310;44.626;11.176;2023-02-15T16:01:51;25.30;51.80
16402;DHT22;8310;44.626;11.176;2023-02-15T16:04:24;25.20;51.70
16402;DHT22;8310;44.626;11.176;2023-02-15T16:06:52;25.00;51.60
16402;DHT22;8310;44.626;11.176;2023-02-15T16:09:22;24.90;51.60
16402;DHT22;8310;44.626;11.176;2023-02-15T16:11:52;24.80;51.60
16402;DHT22;8310;44.626;11.176;2023-02-15T16:14:25;24.70;51.60
16402;DHT22;8310;44.626;11.176;2023-02-15T16:16:59;24.60;51.60
16402;DHT22;8310;44.626;11.176;2023-02-15T16:19:30;24.40;51.50
16402;DHT22;8310;44.626;11.176;2023-02-15T16:22:01;24.20;51.30
16402;DHT22;8310;44.626;11.176;2023-02-15T16:24:38;24.00;51.20
16402;DHT22;8310;44.626;11.176;2023-02-15T16:30:24;23.60;51.10
16402;DHT22;8310;44.626;11.176;2023-02-15T16:33:02;23.40;51.00